sensor_id;sensor_type;location;lat;lon;timestamp;P1;durP1;ratioP1;P2;durP2;ratioP2
33206;SDS011;19565;46.602;11.534;2022-10-18T00:00:53;1.63;;;1.52;;
33206;SDS011;19565;46.602;11.534;2022-10-18T00:03:22;2.95;;;2.35;;
33206;SDS011;19565;46.602;11.534;2022-10-18T00:05:50;2.17;;;1.58;;
33206;SDS011;19565;46.602;11.534;2022-10-18T00:08:20;3.80;;;3.47;;
33206;SDS011;19565;46.602;11.534;2022-10-18T00:10:48;1.77;;;1.67;;
33206;SDS011;19565;46.602;11.534;2022-10-18T00:13:16;2.83;;;2.63;;
33206;SDS011;19565;46.602;11.534;2022-10-18T00:15:48;1.90;;;1.50;;
33206;SDS011;19565;46.602;11.534;2022-10-18T00:18:17;1.53;;;1.13;;
33206;SDS011;19565;46.602;11.534;2022-10-18T00:20:54;2.47;;;2.27;;
33206;SDS011;19565;46.602;11.534;2022-10-18T00:23:24;1.23;;;1.05;;
33206;SDS011;19565;46.602;11.534;2022-10-18T00:25:59;2.00;;;0.98;;
33206;SDS011;19565;46.602;11.534;2022-10-18T00:28:29;2.42;;;1.98;;
33206;SDS011;19565;46.602;11.534;2022-10-18T00:30:57;2.00;;;1.83;;
33206;SDS011;19565;46.602;11.534;2022-10-18T00:33:36;1.50;;;1.40;;
33206;SDS011;19565;46.602;11.534;2022-10-18T00:36:04;2.23;;;2.10;;
33206;SDS011;19565;46.602;11.534;2022-10-18T00:38:34;3.40;;;3.10;;
33206;SDS011;19565;46.602;11.534;2022-10-18T00:41:02;1.23;;;1.13;;
33206;SDS011;19565;46.602;11.534;2022-10-18T00:43:31;1.60;;;1.30;;
33206;SDS011;19565;46.602;11.534;2022-10-18T00:45:59;2.90;;;1.70;;
33206;SDS011;19565;46.602;11.534;2022-10-18T00:48:27;1.38;;;1.27;;
33206;SDS011;19565;46.602;11.534;2022-10-18T00:50:55;2.33;;;1.80;;
33206;SDS011;19565;46.602;11.534;2022-10-18T00:53:23;1.97;;;1.53;;
33206;SDS011;19565;46.602;11.534;2022-10-18T00:55:53;3.67;;;3.23;;
33206;SDS011;19565;46.602;11.534;2022-10-18T00:58:23;1.30;;;1.23;;
33206;SDS011;19565;46.602;11.534;2022-10-18T01:00:51;7.03;;;3.50;;
33206;SDS011;19565;46.602;11.534;2022-10-18T01:03:19;1.50;;;1.40;;
33206;SDS011;19565;46.602;11.534;2022-10-18T01:05:47;1.75;;;1.55;;
33206;SDS011;19565;46.602;11.534;2022-10-18T01:08:23;1.95;;;1.80;;
33206;SDS011;19565;46.602;11.534;2022-10-18T01:11:20;0.82;;;0.82;;
33206;SDS011;19565;46.602;11.534;2022-10-18T01:14:01;2.50;;;1.67;;
33206;SDS011;19565;46.602;11.534;2022-10-18T01:16:38;1.98;;;1.75;;
33206;SDS011;19565;46.602;11.534;2022-10-18T01:19:17;1.83;;;1.73;;
33206;SDS011;19565;46.602;11.534;2022-10-18T01:22:01;2.80;;;2.60;;
33206;SDS011;19565;46.602;11.534;2022-10-18T01:27:45;2.37;;;2.17;;
33206;SDS011;19565;46.602;11.534;2022-10-18T01:30:23;2.27;;;1.43;;
33206;SDS011;19565;46.602;11.534;2022-10-18T01:33:02;2.77;;;1.80;;
33206;SDS011;19565;46.602;11.534;2022-10-18T01:35:36;2.13;;;1.87;;
33206;SDS011;19565;46.602;11.534;2022-10-18T01:38:10;4.13;;;0.87;;
33206;SDS011;19565;46.602;11.534;2022-10-18T01:40:42;3.67;;;3.33;;
33206;SDS011;19565;46.602;11.534;2022-10-18T01:43:13;2.10;;;2.00;;
33206;SDS011;19565;46.602;11.534;2022-10-18T01:45:45;2.33;;;1.23;;
33206;SDS011;19565;46.602;11.534;2022-10-18T01:48:14;1.83;;;1.70;;
33206;SDS011;19565;46.602;11.534;2022-10-18T01:50:43;3.83;;;1.90;;
33206;SDS011;19565;46.602;11.534;2022-10-18T01:53:21;2.33;;;2.13;;
33206;SDS011;19565;46.602;11.534;2022-10-18T01:55:53;2.53;;;1.93;;
33206;SDS011;19565;46.602;11.534;2022-10-18T01:58:42;4.20;;;2.40;;
33206;SDS011;19565;46.602;11.534;2022-10-18T02:01:18;2.40;;;1.67;;
33206;SDS011;19565;46.602;11.534;2022-10-18T02:03:55;1.00;;;1.00;;
33206;SDS011;19565;46.602;11.534;2022-10-18T02:06:30;2.57;;;1.27;;
33206;SDS011;19565;46.602;11.534;2022-10-18T02:09:03;2.13;;;1.97;;
33206;SDS011;19565;46.602;11.534;2022-10-18T02:11:38;1.37;;;1.27;;
33206;SDS011;19565;46.602;11.534;2022-10-18T02:14:09;2.23;;;2.00;;
33206;SDS011;19565;46.602;11.534;2022-10-18T02:16:42;2.07;;;1.87;;
33206;SDS011;19565;46.602;11.534;2022-10-18T02:19:14;1.93;;;1.73;;
33206;SDS011;19565;46.602;11.534;2022-10-18T02:21:46;2.00;;;0.87;;
33206;SDS011;19565;46.602;11.534;2022-10-18T02:24:18;1.43;;;1.33;;
33206;SDS011;19565;46.602;11.534;2022-10-18T02:26:49;2.77;;;2.13;;
33206;SDS011;19565;46.602;11.534;2022-10-18T02:29:17;2.73;;;2.53;;
33206;SDS011;19565;46.602;11.534;2022-10-18T02:31:47;1.37;;;1.23;;
33206;SDS011;19565;46.602;11.534;2022-10-18T02:34:18;1.80;;;1.27;;
33206;SDS011;19565;46.602;11.534;2022-10-18T02:36:49;0.97;;;0.97;;
33206;SDS011;19565;46.602;11.534;2022-10-18T02:39:20;1.03;;;0.97;;
33206;SDS011;19565;46.602;11.534;2022-10-18T02:41:51;1.57;;;1.10;;
33206;SDS011;19565;46.602;11.534;2022-10-18T02:44:20;3.30;;;2.70;;
33206;SDS011;19565;46.602;11.534;2022-10-18T02:46:49;4.07;;;1.83;;
33206;SDS011;19565;46.602;11.534;2022-10-18T02:49:17;2.07;;;1.53;;
33206;SDS011;19565;46.602;11.534;2022-10-18T02:51:45;2.73;;;2.10;;
33206;SDS011;19565;46.602;11.534;2022-10-18T02:54:13;1.67;;;1.57;;
33206;SDS011;19565;46.602;11.534;2022-10-18T02:56:41;3.43;;;3.13;;
33206;SDS011;19565;46.602;11.534;2022-10-18T02:59:09;2.77;;;1.97;;
33206;SDS011;19565;46.602;11.534;2022-10-18T03:01:37;1.00;;;0.97;;
33206;SDS011;19565;46.602;11.534;2022-10-18T03:04:07;1.00;;;0.87;;
33206;SDS011;19565;46.602;11.534;2022-10-18T03:06:35;2.37;;;2.17;;
33206;SDS011;19565;46.602;11.534;2022-10-18T03:09:04;2.80;;;2.53;;
33206;SDS011;19565;46.602;11.534;2022-10-18T03:11:32;1.60;;;1.50;;
33206;SDS011;19565;46.602;11.534;2022-10-18T03:14:00;2.30;;;2.10;;
33206;SDS011;19565;46.602;11.534;2022-10-18T03:16:29;1.33;;;1.23;;
33206;SDS011;19565;46.602;11.534;2022-10-18T03:18:57;3.40;;;1.70;;
33206;SDS011;19565;46.602;11.534;2022-10-18T03:21:26;1.57;;;1.47;;
33206;SDS011;19565;46.602;11.534;2022-10-18T03:23:54;1.27;;;1.17;;
33206;SDS011;19565;46.602;11.534;2022-10-18T03:26:23;1.53;;;1.43;;
33206;SDS011;19565;46.602;11.534;2022-10-18T03:28:52;3.87;;;2.10;;
33206;SDS011;19565;46.602;11.534;2022-10-18T03:31:20;2.20;;;1.97;;
33206;SDS011;19565;46.602;11.534;2022-10-18T03:33:48;1.27;;;1.17;;
33206;SDS011;19565;46.602;11.534;2022-10-18T03:36:16;4.50;;;2.50;;
33206;SDS011;19565;46.602;11.534;2022-10-18T03:38:46;1.33;;;0.90;;
33206;SDS011;19565;46.602;11.534;2022-10-18T03:41:14;5.43;;;2.03;;
33206;SDS011;19565;46.602;11.534;2022-10-18T03:43:42;1.90;;;0.93;;
33206;SDS011;19565;46.602;11.534;2022-10-18T03:46:10;5.03;;;1.60;;
33206;SDS011;19565;46.602;11.534;2022-10-18T03:48:38;1.57;;;1.47;;
33206;SDS011;19565;46.602;11.534;2022-10-18T03:51:06;3.30;;;2.17;;
33206;SDS011;19565;46.602;11.534;2022-10-18T03:53:34;2.47;;;1.60;;
33206;SDS011;19565;46.602;11.534;2022-10-18T03:56:04;1.23;;;1.07;;
33206;SDS011;19565;46.602;11.534;2022-10-18T03:58:32;2.00;;;1.70;;
33206;SDS011;19565;46.602;11.534;2022-10-18T04:01:00;2.73;;;1.97;;
33206;SDS011;19565;46.602;11.534;2022-10-18T04:03:28;1.27;;;1.17;;
33206;SDS011;19565;46.602;11.534;2022-10-18T04:05:56;2.23;;;2.13;;
33206;SDS011;19565;46.602;11.534;2022-10-18T04:08:25;1.30;;;1.20;;
33206;SDS011;19565;46.602;11.534;2022-10-18T04:10:53;1.00;;;1.00;;
33206;SDS011;19565;46.602;11.534;2022-10-18T04:13:23;2.23;;;2.03;;
33206;SDS011;19565;46.602;11.534;2022-10-18T04:15:51;1.43;;;1.33;;
33206;SDS011;19565;46.602;11.534;2022-10-18T04:18:19;1.90;;;1.80;;
33206;SDS011;19565;46.602;11.534;2022-10-18T04:20:47;2.37;;;2.17;;
33206;SDS011;19565;46.602;11.534;2022-10-18T04:23:15;1.13;;;1.10;;
33206;SDS011;19565;46.602;11.534;2022-10-18T04:25:43;5.97;;;1.20;;
33206;SDS011;19565;46.602;11.534;2022-10-18T04:28:11;4.82;;;2.17;;
33206;SDS011;19565;46.602;11.534;2022-10-18T04:30:40;5.47;;;1.27;;
33206;SDS011;19565;46.602;11.534;2022-10-18T04:33:08;1.40;;;1.30;;
33206;SDS011;19565;46.602;11.534;2022-10-18T04:35:36;1.40;;;1.30;;
33206;SDS011;19565;46.602;11.534;2022-10-18T04:38:04;0.80;;;0.80;;
33206;SDS011;19565;46.602;11.534;2022-10-18T04:43:00;3.92;;;2.85;;
33206;SDS011;19565;46.602;11.534;2022-10-18T04:45:28;3.70;;;2.03;;
33206;SDS011;19565;46.602;11.534;2022-10-18T04:47:57;1.73;;;1.63;;
33206;SDS011;19565;46.602;11.534;2022-10-18T04:50:25;1.77;;;1.67;;
33206;SDS011;19565;46.602;11.534;2022-10-18T04:52:54;2.20;;;1.57;;
33206;SDS011;19565;46.602;11.534;2022-10-18T04:55:22;3.73;;;2.93;;
33206;SDS011;19565;46.602;11.534;2022-10-18T04:57:50;2.03;;;1.90;;
33206;SDS011;19565;46.602;11.534;2022-10-18T05:00:19;2.33;;;1.60;;
33206;SDS011;19565;46.602;11.534;2022-10-18T05:02:47;2.57;;;1.60;;
33206;SDS011;19565;46.602;11.534;2022-10-18T05:05:16;2.17;;;2.00;;
33206;SDS011;19565;46.602;11.534;2022-10-18T05:07:44;2.87;;;2.23;;
33206;SDS011;19565;46.602;11.534;2022-10-18T05:10:12;3.03;;;1.77;;
33206;SDS011;19565;46.602;11.534;2022-10-18T05:12:40;2.20;;;1.63;;
33206;SDS011;19565;46.602;11.534;2022-10-18T05:15:09;2.27;;;1.87;;
33206;SDS011;19565;46.602;11.534;2022-10-18T05:17:37;2.97;;;2.23;;
33206;SDS011;19565;46.602;11.534;2022-10-18T05:20:05;1.13;;;1.13;;
33206;SDS011;19565;46.602;11.534;2022-10-18T05:22:35;3.17;;;2.37;;
33206;SDS011;19565;46.602;11.534;2022-10-18T05:25:03;3.08;;;2.47;;
33206;SDS011;19565;46.602;11.534;2022-10-18T05:27:34;1.50;;;1.33;;
33206;SDS011;19565;46.602;11.534;2022-10-18T05:30:02;1.87;;;1.77;;
33206;SDS011;19565;46.602;11.534;2022-10-18T05:32:31;2.77;;;2.57;;
33206;SDS011;19565;46.602;11.534;2022-10-18T05:34:59;2.17;;;1.97;;
33206;SDS011;19565;46.602;11.534;2022-10-18T05:37:27;1.27;;;1.17;;
33206;SDS011;19565;46.602;11.534;2022-10-18T05:39:57;2.33;;;1.63;;
33206;SDS011;19565;46.602;11.534;2022-10-18T05:42:25;1.60;;;1.50;;
33206;SDS011;19565;46.602;11.534;2022-10-18T05:44:53;3.70;;;2.80;;
33206;SDS011;19565;46.602;11.534;2022-10-18T05:47:21;4.40;;;1.80;;
33206;SDS011;19565;46.602;11.534;2022-10-18T05:49:49;3.63;;;1.47;;
33206;SDS011;19565;46.602;11.534;2022-10-18T05:52:17;1.43;;;1.33;;
33206;SDS011;19565;46.602;11.534;2022-10-18T05:54:45;1.73;;;1.63;;
33206;SDS011;19565;46.602;11.534;2022-10-18T05:57:14;2.13;;;1.93;;
33206;SDS011;19565;46.602;11.534;2022-10-18T05:59:42;0.90;;;0.90;;
33206;SDS011;19565;46.602;11.534;2022-10-18T06:02:11;1.70;;;1.60;;
33206;SDS011;19565;46.602;11.534;2022-10-18T06:04:39;5.33;;;2.80;;
33206;SDS011;19565;46.602;11.534;2022-10-18T06:07:07;2.23;;;2.03;;
33206;SDS011;19565;46.602;11.534;2022-10-18T06:09:36;2.80;;;2.10;;
33206;SDS011;19565;46.602;11.534;2022-10-18T06:12:04;2.07;;;1.97;;
33206;SDS011;19565;46.602;11.534;2022-10-18T06:14:35;1.37;;;1.27;;
33206;SDS011;19565;46.602;11.534;2022-10-18T06:17:03;1.60;;;1.50;;
33206;SDS011;19565;46.602;11.534;2022-10-18T06:19:33;2.97;;;1.60;;
33206;SDS011;19565;46.602;11.534;2022-10-18T06:22:01;3.37;;;3.07;;
33206;SDS011;19565;46.602;11.534;2022-10-18T06:24:29;2.87;;;2.10;;
33206;SDS011;19565;46.602;11.534;2022-10-18T06:26:57;1.83;;;1.73;;
33206;SDS011;19565;46.602;11.534;2022-10-18T06:29:25;3.43;;;3.13;;
33206;SDS011;19565;46.602;11.534;2022-10-18T06:31:55;1.70;;;1.57;;
33206;SDS011;19565;46.602;11.534;2022-10-18T06:34:23;2.50;;;1.97;;
33206;SDS011;19565;46.602;11.534;2022-10-18T06:36:51;2.00;;;1.90;;
33206;SDS011;19565;46.602;11.534;2022-10-18T06:39:23;5.07;;;3.70;;
33206;SDS011;19565;46.602;11.534;2022-10-18T06:41:51;3.23;;;2.93;;
33206;SDS011;19565;46.602;11.534;2022-10-18T06:44:19;2.57;;;2.37;;
33206;SDS011;19565;46.602;11.534;2022-10-18T06:46:48;1.57;;;1.47;;
33206;SDS011;19565;46.602;11.534;2022-10-18T06:49:18;2.70;;;2.50;;
33206;SDS011;19565;46.602;11.534;2022-10-18T06:51:46;1.40;;;1.30;;
33206;SDS011;19565;46.602;11.534;2022-10-18T06:54:14;1.27;;;1.17;;
33206;SDS011;19565;46.602;11.534;2022-10-18T06:56:44;1.70;;;1.60;;
33206;SDS011;19565;46.602;11.534;2022-10-18T06:59:12;3.40;;;3.07;;
33206;SDS011;19565;46.602;11.534;2022-10-18T07:01:40;0.70;;;0.70;;
33206;SDS011;19565;46.602;11.534;2022-10-18T07:04:09;2.20;;;1.63;;
33206;SDS011;19565;46.602;11.534;2022-10-18T07:06:38;2.30;;;1.83;;
33206;SDS011;19565;46.602;11.534;2022-10-18T07:09:06;3.17;;;2.97;;
33206;SDS011;19565;46.602;11.534;2022-10-18T07:11:34;1.87;;;1.43;;
33206;SDS011;19565;46.602;11.534;2022-10-18T07:14:02;1.23;;;1.13;;
33206;SDS011;19565;46.602;11.534;2022-10-18T07:16:31;1.97;;;1.27;;
33206;SDS011;19565;46.602;11.534;2022-10-18T07:19:00;1.30;;;1.07;;
33206;SDS011;19565;46.602;11.534;2022-10-18T07:21:28;3.20;;;3.00;;
33206;SDS011;19565;46.602;11.534;2022-10-18T07:23:58;1.17;;;1.17;;
33206;SDS011;19565;46.602;11.534;2022-10-18T07:26:26;2.13;;;1.97;;
33206;SDS011;19565;46.602;11.534;2022-10-18T07:28:56;1.17;;;1.07;;
33206;SDS011;19565;46.602;11.534;2022-10-18T07:31:28;2.28;;;2.00;;
33206;SDS011;19565;46.602;11.534;2022-10-18T07:33:57;1.80;;;1.63;;
33206;SDS011;19565;46.602;11.534;2022-10-18T07:36:25;1.23;;;1.13;;
33206;SDS011;19565;46.602;11.534;2022-10-18T07:38:53;2.08;;;1.88;;
33206;SDS011;19565;46.602;11.534;2022-10-18T07:41:22;3.00;;;2.03;;
33206;SDS011;19565;46.602;11.534;2022-10-18T07:43:51;2.90;;;2.60;;
33206;SDS011;19565;46.602;11.534;2022-10-18T07:46:19;1.60;;;1.53;;
33206;SDS011;19565;46.602;11.534;2022-10-18T07:48:48;2.03;;;1.90;;
33206;SDS011;19565;46.602;11.534;2022-10-18T07:51:17;3.60;;;1.83;;
33206;SDS011;19565;46.602;11.534;2022-10-18T07:53:46;2.50;;;2.30;;
33206;SDS011;19565;46.602;11.534;2022-10-18T07:56:15;2.67;;;2.43;;
33206;SDS011;19565;46.602;11.534;2022-10-18T07:58:48;2.67;;;2.37;;
33206;SDS011;19565;46.602;11.534;2022-10-18T08:01:18;1.13;;;1.03;;
33206;SDS011;19565;46.602;11.534;2022-10-18T08:03:47;0.80;;;0.80;;
33206;SDS011;19565;46.602;11.534;2022-10-18T08:06:16;1.40;;;1.30;;
33206;SDS011;19565;46.602;11.534;2022-10-18T08:08:45;2.37;;;2.07;;
33206;SDS011;19565;46.602;11.534;2022-10-18T08:11:14;4.03;;;3.13;;
33206;SDS011;19565;46.602;11.534;2022-10-18T08:13:44;2.50;;;2.07;;
33206;SDS011;19565;46.602;11.534;2022-10-18T08:16:14;1.50;;;1.40;;
33206;SDS011;19565;46.602;11.534;2022-10-18T08:18:44;1.73;;;1.57;;
33206;SDS011;19565;46.602;11.534;2022-10-18T08:21:13;2.60;;;2.43;;
33206;SDS011;19565;46.602;11.534;2022-10-18T08:23:42;2.60;;;2.40;;
33206;SDS011;19565;46.602;11.534;2022-10-18T08:26:11;2.57;;;2.40;;
33206;SDS011;19565;46.602;11.534;2022-10-18T08:28:41;2.07;;;1.97;;
33206;SDS011;19565;46.602;11.534;2022-10-18T08:31:20;5.60;;;5.20;;
33206;SDS011;19565;46.602;11.534;2022-10-18T08:33:48;4.50;;;4.23;;
33206;SDS011;19565;46.602;11.534;2022-10-18T08:36:16;5.90;;;5.40;;
33206;SDS011;19565;46.602;11.534;2022-10-18T08:38:45;7.87;;;7.17;;
33206;SDS011;19565;46.602;11.534;2022-10-18T08:44:22;5.57;;;5.27;;
33206;SDS011;19565;46.602;11.534;2022-10-18T08:46:54;6.80;;;6.40;;
33206;SDS011;19565;46.602;11.534;2022-10-18T08:49:25;7.67;;;7.03;;
33206;SDS011;19565;46.602;11.534;2022-10-18T08:51:56;7.80;;;7.30;;
33206;SDS011;19565;46.602;11.534;2022-10-18T08:54:28;8.27;;;7.43;;
33206;SDS011;19565;46.602;11.534;2022-10-18T08:57:01;3.70;;;3.40;;
33206;SDS011;19565;46.602;11.534;2022-10-18T08:59:38;3.43;;;3.17;;
33206;SDS011;19565;46.602;11.534;2022-10-18T09:02:14;3.53;;;3.23;;
33206;SDS011;19565;46.602;11.534;2022-10-18T09:04:48;4.90;;;4.50;;
33206;SDS011;19565;46.602;11.534;2022-10-18T09:10:18;3.63;;;3.40;;
33206;SDS011;19565;46.602;11.534;2022-10-18T09:12:56;3.27;;;2.97;;
33206;SDS011;19565;46.602;11.534;2022-10-18T09:15:44;4.57;;;4.17;;
33206;SDS011;19565;46.602;11.534;2022-10-18T09:18:23;4.77;;;4.37;;
33206;SDS011;19565;46.602;11.534;2022-10-18T09:21:03;3.93;;;3.63;;
33206;SDS011;19565;46.602;11.534;2022-10-18T09:23:36;4.77;;;3.60;;
33206;SDS011;19565;46.602;11.534;2022-10-18T09:26:09;4.37;;;4.07;;
33206;SDS011;19565;46.602;11.534;2022-10-18T09:28:44;4.00;;;3.70;;
33206;SDS011;19565;46.602;11.534;2022-10-18T09:31:26;7.67;;;3.83;;
33206;SDS011;19565;46.602;11.534;2022-10-18T09:34:03;4.50;;;4.10;;
33206;SDS011;19565;46.602;11.534;2022-10-18T09:36:34;4.47;;;4.17;;
33206;SDS011;19565;46.602;11.534;2022-10-18T09:39:08;5.63;;;5.23;;
33206;SDS011;19565;46.602;11.534;2022-10-18T09:41:39;6.13;;;5.73;;
33206;SDS011;19565;46.602;11.534;2022-10-18T09:44:14;5.00;;;4.63;;
33206;SDS011;19565;46.602;11.534;2022-10-18T09:46:48;6.27;;;5.67;;
33206;SDS011;19565;46.602;11.534;2022-10-18T09:49:22;4.50;;;4.20;;
33206;SDS011;19565;46.602;11.534;2022-10-18T09:51:54;5.03;;;4.73;;
33206;SDS011;19565;46.602;11.534;2022-10-18T09:54:25;5.70;;;5.30;;
33206;SDS011;19565;46.602;11.534;2022-10-18T09:57:00;6.23;;;5.83;;
33206;SDS011;19565;46.602;11.534;2022-10-18T09:59:31;7.37;;;6.97;;
33206;SDS011;19565;46.602;11.534;2022-10-18T10:02:04;10.70;;;9.80;;
33206;SDS011;19565;46.602;11.534;2022-10-18T10:04:33;8.83;;;8.23;;
33206;SDS011;19565;46.602;11.534;2022-10-18T10:07:01;11.80;;;11.10;;
33206;SDS011;19565;46.602;11.534;2022-10-18T10:09:36;11.40;;;10.67;;
33206;SDS011;19565;46.602;11.534;2022-10-18T10:12:21;13.20;;;12.33;;
33206;SDS011;19565;46.602;11.534;2022-10-18T10:14:52;14.63;;;13.83;;
33206;SDS011;19565;46.602;11.534;2022-10-18T10:17:21;13.50;;;12.80;;
33206;SDS011;19565;46.602;11.534;2022-10-18T10:19:58;14.05;;;13.35;;
33206;SDS011;19565;46.602;11.534;2022-10-18T10:22:31;14.80;;;14.00;;
33206;SDS011;19565;46.602;11.534;2022-10-18T10:25:02;15.43;;;14.63;;
33206;SDS011;19565;46.602;11.534;2022-10-18T10:27:32;17.17;;;16.27;;
33206;SDS011;19565;46.602;11.534;2022-10-18T10:30:12;15.93;;;15.13;;
33206;SDS011;19565;46.602;11.534;2022-10-18T10:32:50;16.87;;;15.97;;
33206;SDS011;19565;46.602;11.534;2022-10-18T10:35:21;16.70;;;15.68;;
33206;SDS011;19565;46.602;11.534;2022-10-18T10:38:20;17.75;;;16.75;;
33206;SDS011;19565;46.602;11.534;2022-10-18T10:40:50;16.63;;;15.73;;
33206;SDS011;19565;46.602;11.534;2022-10-18T10:43:20;26.40;;;25.20;;
33206;SDS011;19565;46.602;11.534;2022-10-18T10:46:05;16.90;;;16.05;;
33206;SDS011;19565;46.602;11.534;2022-10-18T10:48:38;16.42;;;15.63;;
33206;SDS011;19565;46.602;11.534;2022-10-18T10:51:14;17.38;;;16.33;;
33206;SDS011;19565;46.602;11.534;2022-10-18T10:53:47;16.92;;;16.02;;
33206;SDS011;19565;46.602;11.534;2022-10-18T10:56:22;17.05;;;16.15;;
33206;SDS011;19565;46.602;11.534;2022-10-18T10:58:53;19.10;;;18.20;;
33206;SDS011;19565;46.602;11.534;2022-10-18T11:01:25;17.92;;;17.02;;
33206;SDS011;19565;46.602;11.534;2022-10-18T11:03:58;19.80;;;18.80;;
33206;SDS011;19565;46.602;11.534;2022-10-18T11:06:35;18.25;;;17.35;;
33206;SDS011;19565;46.602;11.534;2022-10-18T11:09:09;18.33;;;17.42;;
33206;SDS011;19565;46.602;11.534;2022-10-18T11:11:46;18.88;;;17.95;;
33206;SDS011;19565;46.602;11.534;2022-10-18T11:14:25;20.05;;;19.05;;
33206;SDS011;19565;46.602;11.534;2022-10-18T11:16:58;19.15;;;18.25;;
33206;SDS011;19565;46.602;11.534;2022-10-18T11:19:36;18.60;;;17.70;;
33206;SDS011;19565;46.602;11.534;2022-10-18T11:22:11;21.75;;;20.65;;
33206;SDS011;19565;46.602;11.534;2022-10-18T11:24:42;19.92;;;18.92;;
33206;SDS011;19565;46.602;11.534;2022-10-18T11:27:13;21.20;;;20.15;;
33206;SDS011;19565;46.602;11.534;2022-10-18T11:29:50;20.50;;;19.40;;
33206;SDS011;19565;46.602;11.534;2022-10-18T11:32:29;18.38;;;17.38;;
33206;SDS011;19565;46.602;11.534;2022-10-18T11:35:10;20.88;;;19.77;;
33206;SDS011;19565;46.602;11.534;2022-10-18T11:38:00;22.98;;;21.88;;
33206;SDS011;19565;46.602;11.534;2022-10-18T11:40:44;22.77;;;21.73;;
33206;SDS011;19565;46.602;11.534;2022-10-18T11:43:25;22.05;;;21.05;;
33206;SDS011;19565;46.602;11.534;2022-10-18T11:46:25;20.38;;;19.38;;
33206;SDS011;19565;46.602;11.534;2022-10-18T11:49:09;25.23;;;24.00;;
33206;SDS011;19565;46.602;11.534;2022-10-18T11:51:55;23.13;;;22.02;;
33206;SDS011;19565;46.602;11.534;2022-10-18T11:54:42;24.13;;;23.02;;
33206;SDS011;19565;46.602;11.534;2022-10-18T11:57:30;22.33;;;21.15;;
33206;SDS011;19565;46.602;11.534;2022-10-18T12:00:15;22.77;;;21.73;;
33206;SDS011;19565;46.602;11.534;2022-10-18T12:03:01;42.42;;;40.63;;
33206;SDS011;19565;46.602;11.534;2022-10-18T12:05:38;45.65;;;43.65;;
33206;SDS011;19565;46.602;11.534;2022-10-18T12:08:10;44.83;;;42.92;;
33206;SDS011;19565;46.602;11.534;2022-10-18T12:10:46;48.28;;;46.08;;
33206;SDS011;19565;46.602;11.534;2022-10-18T12:13:32;51.00;;;48.55;;
33206;SDS011;19565;46.602;11.534;2022-10-18T12:16:05;46.92;;;44.83;;
33206;SDS011;19565;46.602;11.534;2022-10-18T12:18:35;54.88;;;52.47;;
33206;SDS011;19565;46.602;11.534;2022-10-18T12:21:11;54.40;;;52.10;;
33206;SDS011;19565;46.602;11.534;2022-10-18T12:23:41;51.47;;;49.28;;
33206;SDS011;19565;46.602;11.534;2022-10-18T12:26:17;46.50;;;44.50;;
33206;SDS011;19565;46.602;11.534;2022-10-18T12:28:47;53.20;;;50.90;;
33206;SDS011;19565;46.602;11.534;2022-10-18T12:31:21;53.85;;;51.42;;
33206;SDS011;19565;46.602;11.534;2022-10-18T12:33:53;49.72;;;47.72;;
33206;SDS011;19565;46.602;11.534;2022-10-18T12:36:29;45.85;;;43.83;;
33206;SDS011;19565;46.602;11.534;2022-10-18T12:39:16;46.10;;;43.90;;
33206;SDS011;19565;46.602;11.534;2022-10-18T12:42:16;20.80;;;19.80;;
33206;SDS011;19565;46.602;11.534;2022-10-18T12:44:46;21.70;;;20.70;;
33206;SDS011;19565;46.602;11.534;2022-10-18T12:47:20;20.08;;;19.17;;
33206;SDS011;19565;46.602;11.534;2022-10-18T12:49:55;21.00;;;20.00;;
33206;SDS011;19565;46.602;11.534;2022-10-18T12:52:25;22.30;;;21.20;;
33206;SDS011;19565;46.602;11.534;2022-10-18T12:55:06;24.33;;;23.23;;
33206;SDS011;19565;46.602;11.534;2022-10-18T12:58:03;24.02;;;22.88;;
33206;SDS011;19565;46.602;11.534;2022-10-18T13:00:50;22.15;;;21.15;;
33206;SDS011;19565;46.602;11.534;2022-10-18T13:06:20;20.40;;;19.40;;
33206;SDS011;19565;46.602;11.534;2022-10-18T13:11:43;22.45;;;21.33;;
33206;SDS011;19565;46.602;11.534;2022-10-18T13:14:29;20.52;;;19.48;;
33206;SDS011;19565;46.602;11.534;2022-10-18T13:17:26;25.92;;;24.73;;
33206;SDS011;19565;46.602;11.534;2022-10-18T13:20:06;25.15;;;23.85;;
33206;SDS011;19565;46.602;11.534;2022-10-18T13:22:54;25.60;;;24.40;;
33206;SDS011;19565;46.602;11.534;2022-10-18T13:25:35;28.05;;;26.75;;
33206;SDS011;19565;46.602;11.534;2022-10-18T13:28:16;30.67;;;29.15;;
33206;SDS011;19565;46.602;11.534;2022-10-18T13:30:55;26.17;;;24.88;;
33206;SDS011;19565;46.602;11.534;2022-10-18T13:33:30;29.58;;;28.17;;
33206;SDS011;19565;46.602;11.534;2022-10-18T13:36:00;29.23;;;27.83;;
33206;SDS011;19565;46.602;11.534;2022-10-18T13:38:38;30.02;;;28.70;;
33206;SDS011;19565;46.602;11.534;2022-10-18T13:41:09;26.80;;;25.60;;
33206;SDS011;19565;46.602;11.534;2022-10-18T13:53:05;27.95;;;26.55;;
33206;SDS011;19565;46.602;11.534;2022-10-18T13:55:53;29.17;;;27.83;;
33206;SDS011;19565;46.602;11.534;2022-10-18T13:58:33;28.20;;;26.90;;
33206;SDS011;19565;46.602;11.534;2022-10-18T14:01:32;30.02;;;28.63;;
33206;SDS011;19565;46.602;11.534;2022-10-18T14:04:21;26.83;;;25.63;;
33206;SDS011;19565;46.602;11.534;2022-10-18T14:07:08;28.95;;;27.55;;
33206;SDS011;19565;46.602;11.534;2022-10-18T14:09:43;25.90;;;24.70;;
33206;SDS011;19565;46.602;11.534;2022-10-18T14:12:21;28.02;;;26.73;;
33206;SDS011;19565;46.602;11.534;2022-10-18T14:14:55;28.92;;;27.50;;
33206;SDS011;19565;46.602;11.534;2022-10-18T14:17:28;30.85;;;29.45;;
33206;SDS011;19565;46.602;11.534;2022-10-18T14:20:03;34.92;;;33.33;;
33206;SDS011;19565;46.602;11.534;2022-10-18T14:22:45;33.38;;;31.92;;
33206;SDS011;19565;46.602;11.534;2022-10-18T14:25:18;29.52;;;28.23;;
33206;SDS011;19565;46.602;11.534;2022-10-18T14:28:01;33.20;;;31.80;;
33206;SDS011;19565;46.602;11.534;2022-10-18T14:30:34;32.92;;;31.52;;
33206;SDS011;19565;46.602;11.534;2022-10-18T14:33:02;30.58;;;29.17;;
33206;SDS011;19565;46.602;11.534;2022-10-18T14:35:31;32.28;;;30.67;;
33206;SDS011;19565;46.602;11.534;2022-10-18T14:38:01;26.92;;;25.63;;
33206;SDS011;19565;46.602;11.534;2022-10-18T14:40:34;33.30;;;31.90;;
33206;SDS011;19565;46.602;11.534;2022-10-18T14:43:05;30.85;;;29.45;;
33206;SDS011;19565;46.602;11.534;2022-10-18T14:45:38;22.70;;;21.60;;
33206;SDS011;19565;46.602;11.534;2022-10-18T14:48:10;18.88;;;17.83;;
33206;SDS011;19565;46.602;11.534;2022-10-18T14:50:41;18.63;;;17.63;;
33206;SDS011;19565;46.602;11.534;2022-10-18T14:53:14;17.88;;;16.85;;
33206;SDS011;19565;46.602;11.534;2022-10-18T14:55:51;19.55;;;18.52;;
33206;SDS011;19565;46.602;11.534;2022-10-18T14:58:21;19.33;;;18.33;;
33206;SDS011;19565;46.602;11.534;2022-10-18T15:00:49;19.60;;;18.58;;
33206;SDS011;19565;46.602;11.534;2022-10-18T15:03:17;18.63;;;17.63;;
33206;SDS011;19565;46.602;11.534;2022-10-18T15:05:55;18.25;;;17.35;;
33206;SDS011;19565;46.602;11.534;2022-10-18T15:08:28;19.13;;;18.05;;
33206;SDS011;19565;46.602;11.534;2022-10-18T15:11:01;18.40;;;17.30;;
33206;SDS011;19565;46.602;11.534;2022-10-18T15:13:34;18.38;;;17.38;;
33206;SDS011;19565;46.602;11.534;2022-10-18T15:16:09;16.70;;;15.90;;
33206;SDS011;19565;46.602;11.534;2022-10-18T15:18:42;18.02;;;17.13;;
33206;SDS011;19565;46.602;11.534;2022-10-18T15:21:20;19.95;;;18.55;;
33206;SDS011;19565;46.602;11.534;2022-10-18T15:23:50;19.90;;;18.80;;